createdAt,value
2016-08-07T00:00:23.605Z,0
2016-08-07T00:01:23.632Z,0
2016-08-07T00:02:23.649Z,0
2016-08-07T00:03:23.683Z,0
2016-08-07T00:04:38.625Z,0
2016-08-07T00:05:23.723Z,0
2016-08-07T00:06:23.801Z,0
2016-08-07T00:07:23.786Z,0
2016-08-07T00:08:23.814Z,0
2016-08-07T00:09:23.835Z,0
2016-08-07T00:10:23.857Z,0
2016-08-07T00:11:23.879Z,0
2016-08-07T00:12:23.905Z,0
2016-08-07T00:13:23.931Z,0
2016-08-07T00:14:23.956Z,0
2016-08-07T00:15:23.983Z,0
2016-08-07T00:16:24.013Z,0
2016-08-07T00:17:38.961Z,0
2016-08-07T00:18:24.055Z,0
2016-08-07T00:19:24.099Z,0
2016-08-07T00:20:39.035Z,0
2016-08-07T00:21:24.133Z,0
2016-08-07T00:22:24.162Z,0
2016-08-07T00:23:24.184Z,0
2016-08-07T00:24:24.216Z,0
2016-08-07T00:25:24.934Z,0
2016-08-07T00:26:24.271Z,0
2016-08-07T00:27:24.291Z,0
2016-08-07T00:28:24.311Z,0
2016-08-07T00:29:24.339Z,0
2016-08-07T00:30:24.364Z,0
2016-08-07T00:31:24.410Z,0
2016-08-07T00:32:24.412Z,0
2016-08-07T00:33:39.359Z,0
2016-08-07T00:34:24.514Z,0
2016-08-07T00:35:24.494Z,0
2016-08-07T00:36:39.450Z,0
2016-08-07T00:37:24.552Z,0
2016-08-07T00:38:24.624Z,0
2016-08-07T00:39:24.593Z,0
2016-08-07T00:40:24.616Z,0
2016-08-07T00:41:24.640Z,0
2016-08-07T00:42:24.671Z,0
2016-08-07T00:43:25.396Z,0
2016-08-07T00:44:24.717Z,0
2016-08-07T00:45:24.736Z,0
2016-08-07T00:47:24.792Z,0
2016-08-07T00:48:24.819Z,0
2016-08-07T00:49:24.851Z,0
2016-08-07T00:50:24.870Z,0
2016-08-07T00:51:24.929Z,0
2016-08-07T00:52:39.843Z,0
2016-08-07T00:53:24.940Z,0
2016-08-07T00:54:39.893Z,0
2016-08-07T00:56:25.031Z,0
2016-08-07T00:57:25.045Z,0
2016-08-07T00:58:25.072Z,0
2016-08-07T00:59:25.104Z,0
2016-08-07T01:00:25.121Z,0
2016-08-07T01:01:25.146Z,0
2016-08-07T01:02:25.186Z,0
2016-08-07T01:03:25.191Z,0
2016-08-07T01:04:25.233Z,0
2016-08-07T01:05:25.248Z,0
2016-08-07T01:06:25.280Z,0
2016-08-07T01:07:25.345Z,0
2016-08-07T01:09:40.266Z,0
2016-08-07T01:10:25.377Z,0
2016-08-07T01:11:26.943Z,0
2016-08-07T01:12:25.416Z,0
2016-08-07T01:13:25.455Z,0
2016-08-07T01:14:25.508Z,0
2016-08-07T01:15:25.596Z,0
2016-08-07T01:16:25.523Z,0
2016-08-07T01:17:25.554Z,0
2016-08-07T01:18:25.581Z,0
2016-08-07T01:19:25.598Z,0
2016-08-07T01:20:26.251Z,0
2016-08-07T01:21:25.645Z,0
2016-08-07T01:22:25.671Z,0
2016-08-07T01:23:40.623Z,0
2016-08-07T01:24:26.433Z,0
2016-08-07T01:25:40.676Z,0
2016-08-07T01:26:25.773Z,0
2016-08-07T01:27:26.406Z,0
2016-08-07T01:28:25.830Z,0
2016-08-07T01:29:25.941Z,0
2016-08-07T01:30:25.873Z,0
2016-08-07T01:31:25.929Z,0
2016-08-07T01:32:40.855Z,0
2016-08-07T01:33:41.074Z,0
2016-08-07T01:34:25.974Z,0
2016-08-07T01:35:26.050Z,0
2016-08-07T01:36:27.469Z,0
2016-08-07T01:37:26.059Z,0
2016-08-07T01:38:26.080Z,0
2016-08-07T01:39:26.109Z,0
2016-08-07T01:41:26.161Z,0
2016-08-07T01:42:26.869Z,0
2016-08-07T01:43:27.112Z,0
2016-08-07T01:44:26.228Z,0
2016-08-07T01:45:26.248Z,0
2016-08-07T01:46:26.291Z,0
2016-08-07T01:47:26.310Z,0
2016-08-07T01:48:41.263Z,0
2016-08-07T01:49:26.354Z,0
2016-08-07T01:50:26.387Z,0
2016-08-07T01:51:28.060Z,0
2016-08-07T01:52:41.354Z,0
2016-08-07T01:53:27.167Z,0
2016-08-07T01:55:41.434Z,0
2016-08-07T01:56:26.528Z,0
2016-08-07T01:57:26.560Z,0
2016-08-07T01:58:26.578Z,0
2016-08-07T01:59:26.608Z,0
2016-08-07T02:00:26.721Z,0
2016-08-07T02:01:26.651Z,0
2016-08-07T02:02:26.685Z,0
2016-08-07T02:03:26.715Z,0
2016-08-07T02:04:26.762Z,0
2016-08-07T02:05:41.689Z,0
2016-08-07T02:06:28.435Z,0
2016-08-07T02:07:41.748Z,0
2016-08-07T02:08:26.882Z,0
2016-08-07T02:09:26.864Z,0
2016-08-07T02:10:28.062Z,0
2016-08-07T02:12:41.851Z,0
2016-08-07T02:13:27.107Z,0
2016-08-07T02:14:28.911Z,0
2016-08-07T02:15:27.004Z,0
2016-08-07T02:16:27.037Z,0
2016-08-07T02:17:27.484Z,0
2016-08-07T02:18:27.086Z,0
2016-08-07T02:19:27.110Z,0
2016-08-07T02:20:27.155Z,0
2016-08-07T02:22:27.191Z,0
2016-08-07T02:23:42.147Z,0
2016-08-07T02:24:27.425Z,0
2016-08-07T02:25:27.253Z,0
2016-08-07T02:26:27.281Z,0
2016-08-07T02:27:42.224Z,0
2016-08-07T02:28:27.337Z,0
2016-08-07T02:29:27.359Z,0
2016-08-07T02:30:27.515Z,0
2016-08-07T02:31:27.401Z,0
2016-08-07T02:32:27.486Z,0
2016-08-07T02:33:27.447Z,0
2016-08-07T02:34:27.479Z,0
2016-08-07T02:35:28.204Z,0
2016-08-07T02:37:27.605Z,0
2016-08-07T02:38:27.580Z,0
2016-08-07T02:39:27.653Z,0
2016-08-07T02:40:27.636Z,0
2016-08-07T02:41:27.656Z,0
2016-08-07T02:42:27.688Z,0
2016-08-07T02:43:42.636Z,0
2016-08-07T02:44:42.648Z,0
2016-08-07T02:45:27.764Z,0
2016-08-07T02:46:27.775Z,0
2016-08-07T02:48:27.842Z,0
2016-08-07T02:49:27.861Z,0
2016-08-07T02:52:27.926Z,0
2016-08-07T02:53:27.956Z,0
2016-08-07T02:54:27.983Z,0
2016-08-07T02:55:42.927Z,0
2016-08-07T02:56:42.959Z,0
2016-08-07T02:57:28.759Z,0
2016-08-07T02:58:43.002Z,0
2016-08-07T02:59:28.102Z,0
2016-08-07T03:00:28.175Z,0
2016-08-07T03:01:43.072Z,4
2016-08-07T03:02:28.186Z,4
2016-08-07T03:03:28.210Z,0
2016-08-07T03:04:28.225Z,4
2016-08-07T03:05:28.955Z,4
2016-08-07T03:07:28.304Z,4
2016-08-07T03:08:43.252Z,8
2016-08-07T03:09:28.348Z,8
2016-08-07T03:10:28.379Z,8
2016-08-07T03:11:28.402Z,16
2016-08-07T03:12:43.350Z,20
2016-08-07T03:13:29.212Z,20
2016-08-07T03:14:28.482Z,24
2016-08-07T03:15:29.214Z,32
2016-08-07T03:16:28.523Z,36
2016-08-07T03:17:28.560Z,40
2016-08-07T03:18:28.584Z,48
2016-08-07T03:19:28.603Z,56
2016-08-07T03:22:28.684Z,80
2016-08-07T03:23:28.699Z,92
2016-08-07T03:24:43.656Z,104
2016-08-07T03:25:28.746Z,116
2016-08-07T03:26:28.783Z,128
2016-08-07T03:27:44.420Z,148
2016-08-07T03:28:28.840Z,156
2016-08-07T03:29:28.854Z,172
2016-08-07T03:32:28.944Z,228
2016-08-07T03:34:28.981Z,264
2016-08-07T03:35:29.011Z,284
2016-08-07T03:36:44.482Z,300
2016-08-07T03:38:29.089Z,300
2016-08-07T03:39:29.100Z,288
2016-08-07T03:40:29.590Z,284
2016-08-07T03:41:44.073Z,272
2016-08-07T03:42:29.879Z,268
2016-08-07T03:43:29.245Z,276
2016-08-07T03:45:29.246Z,296
2016-08-07T03:46:44.195Z,328
2016-08-07T03:47:44.281Z,352
2016-08-07T03:48:29.321Z,388
2016-08-07T03:49:29.343Z,436
2016-08-07T03:50:29.374Z,500
2016-08-07T03:51:29.397Z,552
2016-08-07T03:52:29.446Z,600
2016-08-07T03:53:29.452Z,656
2016-08-07T03:54:29.507Z,692
2016-08-07T03:55:29.502Z,756
2016-08-07T03:56:29.518Z,824
2016-08-07T03:57:29.555Z,904
2016-08-07T03:58:29.566Z,980
2016-08-07T03:59:29.593Z,1052
2016-08-07T04:00:29.979Z,1156
2016-08-07T04:01:44.567Z,1236
2016-08-07T04:02:44.592Z,1332
2016-08-07T04:03:29.706Z,1384
2016-08-07T04:04:29.717Z,1460
2016-08-07T04:05:29.748Z,1616
2016-08-07T04:06:29.767Z,1732
2016-08-07T04:07:29.794Z,1840
2016-08-07T04:08:29.816Z,1976
2016-08-07T04:09:29.850Z,2152
2016-08-07T04:10:29.879Z,2396
2016-08-07T04:11:29.891Z,2328
2016-08-07T04:12:29.922Z,2132
2016-08-07T04:13:29.947Z,2012
2016-08-07T04:14:44.893Z,2016
2016-08-07T04:15:29.993Z,2076
2016-08-07T04:16:30.030Z,2208
2016-08-07T04:17:44.966Z,2452
2016-08-07T04:19:30.097Z,2944
2016-08-07T04:20:45.036Z,3528
2016-08-07T04:21:30.157Z,3172
2016-08-07T04:22:30.180Z,3712
2016-08-07T04:23:30.197Z,4168
2016-08-07T04:24:30.222Z,4304
2016-08-07T04:25:30.248Z,4372
2016-08-07T04:26:30.270Z,4268
2016-08-07T04:28:30.320Z,4016
2016-08-07T04:29:30.335Z,3780
2016-08-07T04:30:45.293Z,3268
2016-08-07T04:31:30.389Z,3192
2016-08-07T04:32:30.424Z,3112
2016-08-07T04:33:45.378Z,3200
2016-08-07T04:34:31.188Z,3688
2016-08-07T04:35:30.503Z,3736
2016-08-07T04:36:30.526Z,3996
2016-08-07T04:37:30.553Z,4528
2016-08-07T04:38:31.264Z,4592
2016-08-07T04:39:32.290Z,5152
2016-08-07T04:40:30.624Z,5544
2016-08-07T04:41:30.639Z,6352
2016-08-07T04:42:30.675Z,7328
2016-08-07T04:43:30.698Z,8152
2016-08-07T04:44:45.651Z,8236
2016-08-07T04:45:30.752Z,7984
2016-08-07T04:46:30.770Z,7488
2016-08-07T04:47:31.498Z,7176
2016-08-07T04:48:33.395Z,7128
2016-08-07T04:50:31.592Z,8048
2016-08-07T04:51:30.899Z,8808
2016-08-07T04:52:30.929Z,8752
2016-08-07T04:53:30.957Z,10256
2016-08-07T04:54:31.000Z,11380
2016-08-07T04:55:30.998Z,10912
2016-08-07T04:56:31.031Z,11272
2016-08-07T04:57:31.100Z,12216
2016-08-07T04:58:31.074Z,19072
2016-08-07T04:59:31.107Z,31584
2016-08-07T05:01:31.161Z,38272
2016-08-07T05:02:46.110Z,24032
2016-08-07T05:03:31.212Z,9576
2016-08-07T05:05:46.196Z,8288
2016-08-07T05:06:31.290Z,8376
2016-08-07T05:08:31.347Z,8304
2016-08-07T05:09:31.372Z,9692
2016-08-07T05:11:31.419Z,55104
2016-08-07T05:12:31.442Z,55776
2016-08-07T05:13:31.468Z,57120
2016-08-07T05:14:31.498Z,53056
2016-08-07T05:15:31.662Z,13344
2016-08-07T05:16:46.483Z,11264
2016-08-07T05:17:46.510Z,35936
2016-08-07T05:18:31.619Z,10580
2016-08-07T05:19:46.565Z,9328
2016-08-07T05:20:31.682Z,8340
2016-08-07T05:21:46.622Z,7968
2016-08-07T05:22:31.783Z,7596
2016-08-07T05:23:31.771Z,7408
2016-08-07T05:24:31.782Z,7952
2016-08-07T05:25:31.817Z,8684
2016-08-07T05:26:31.839Z,9652
2016-08-07T05:27:32.641Z,10800
2016-08-07T05:28:31.905Z,50400
2016-08-07T05:29:31.929Z,29088
2016-08-07T05:30:46.881Z,11884
2016-08-07T05:31:31.984Z,48704
2016-08-07T05:32:32.013Z,34336
2016-08-07T05:33:46.959Z,55744
2016-08-07T05:34:32.068Z,54400
2016-08-07T05:35:32.098Z,44896
2016-08-07T05:37:47.072Z,59072
2016-08-07T05:38:32.183Z,58080
2016-08-07T05:40:32.240Z,65728
2016-08-07T05:41:32.273Z,52928
2016-08-07T05:42:32.291Z,58592
2016-08-07T05:44:32.364Z,16280
2016-08-07T05:45:32.392Z,14176
2016-08-07T05:46:47.353Z,64256
2016-08-07T05:47:32.464Z,60672
2016-08-07T05:48:32.493Z,68512
2016-08-07T05:51:32.592Z,73184
2016-08-07T05:52:32.670Z,73312
2016-08-07T05:53:47.584Z,16672
2016-08-07T05:54:32.681Z,38080
2016-08-07T05:55:32.729Z,74848
2016-08-07T05:56:32.772Z,20064
2016-08-07T05:57:32.791Z,69344
2016-08-07T05:58:32.836Z,73504
2016-08-07T05:59:34.420Z,71840
2016-08-07T06:00:32.931Z,69472
2016-08-07T06:02:32.957Z,75680
2016-08-07T06:03:32.990Z,74496
2016-08-07T06:04:48.639Z,74304
2016-08-07T06:05:33.446Z,72928
2016-08-07T06:07:33.128Z,75456
2016-08-07T06:08:48.094Z,75584
2016-08-07T06:09:33.229Z,76288
2016-08-07T06:10:33.219Z,79008
2016-08-07T06:11:33.266Z,83104
2016-08-07T06:13:33.928Z,76224
2016-08-07T06:15:33.405Z,82144
2016-08-07T06:16:33.440Z,84672
2016-08-07T06:17:33.477Z,81056
2016-08-07T06:18:33.508Z,82464
2016-08-07T06:19:33.537Z,83328
2016-08-07T06:20:33.585Z,83360
2016-08-07T06:21:33.624Z,82976
2016-08-07T06:22:33.655Z,83840
2016-08-07T06:23:33.690Z,83232
2016-08-07T06:24:33.729Z,79872
2016-08-07T06:25:33.760Z,78528
2016-08-07T06:26:33.849Z,82752
2016-08-07T06:27:48.769Z,84928
2016-08-07T06:28:33.861Z,84064
2016-08-07T06:29:33.894Z,83584
2016-08-07T06:30:33.930Z,85152
2016-08-07T06:31:33.978Z,83808
2016-08-07T06:32:34.013Z,82176
2016-08-07T06:33:34.039Z,77696
2016-08-07T06:34:34.092Z,79424
2016-08-07T06:35:49.047Z,82560
2016-08-07T06:36:34.150Z,84800
2016-08-07T06:37:35.015Z,81760
2016-08-07T06:39:49.180Z,84192
2016-08-07T06:40:49.233Z,81600
2016-08-07T06:41:34.331Z,79072
2016-08-07T06:42:34.412Z,79808
2016-08-07T06:43:49.537Z,81952
2016-08-07T06:44:34.439Z,82048
2016-08-07T06:45:34.469Z,82720
2016-08-07T06:47:34.556Z,81632
2016-08-07T06:48:34.586Z,83712
2016-08-07T06:49:34.625Z,84096
2016-08-07T06:50:34.665Z,80960
2016-08-07T06:51:34.688Z,80864
2016-08-07T06:52:34.735Z,80992
2016-08-07T06:53:34.764Z,78528
2016-08-07T06:54:35.503Z,80768
2016-08-07T06:55:34.892Z,83488
2016-08-07T06:58:34.989Z,79872
2016-08-07T06:59:34.996Z,83808
2016-08-07T07:00:35.016Z,81888
2016-08-07T07:01:35.069Z,80192
2016-08-07T07:02:35.094Z,80800
2016-08-07T07:03:35.120Z,78464
2016-08-07T07:04:35.167Z,79200
2016-08-07T07:05:35.200Z,77728
2016-08-07T07:06:35.237Z,77376
2016-08-07T07:07:36.110Z,79552
2016-08-07T07:08:35.389Z,78400
2016-08-07T07:09:35.385Z,76224
2016-08-07T07:10:50.309Z,77408
2016-08-07T07:11:35.574Z,77696
2016-08-07T07:12:50.383Z,75616
2016-08-07T07:13:35.487Z,77952
2016-08-07T07:14:35.532Z,76608
2016-08-07T07:16:35.623Z,74176
2016-08-07T07:17:35.634Z,79456
2016-08-07T07:18:35.676Z,76032
2016-08-07T07:19:35.716Z,72832
2016-08-07T07:23:35.851Z,71872
2016-08-07T07:24:35.951Z,12332
2016-08-07T07:25:36.192Z,49056
2016-08-07T07:26:35.961Z,13072
2016-08-07T07:27:36.003Z,76320
2016-08-07T07:28:50.976Z,71008
2016-08-07T07:29:36.921Z,49312
2016-08-07T07:30:36.120Z,13208
2016-08-07T07:31:36.183Z,11812
2016-08-07T07:33:36.219Z,71968
2016-08-07T07:34:36.256Z,66976
2016-08-07T07:35:36.289Z,67552
2016-08-07T07:36:36.320Z,72576
2016-08-07T07:38:36.398Z,12604
2016-08-07T07:39:51.362Z,21568
2016-08-07T07:40:36.464Z,69088
2016-08-07T07:42:36.556Z,67968
2016-08-07T07:43:52.198Z,70944
2016-08-07T07:44:36.610Z,65472
2016-08-07T07:45:51.565Z,10724
2016-08-07T07:46:36.677Z,14728
2016-08-07T07:47:36.708Z,68640
2016-08-07T08:02:31.671Z,64992
2016-08-07T08:03:31.715Z,64608
2016-08-07T08:04:31.742Z,66592
2016-08-07T08:05:46.702Z,64832
2016-08-07T08:06:31.816Z,64672
2016-08-07T08:07:31.841Z,65408
2016-08-07T08:08:46.804Z,60512
2016-08-07T08:09:46.839Z,58080
2016-08-07T08:10:46.928Z,52256
2016-08-07T08:11:31.995Z,64192
2016-08-07T08:12:46.948Z,56000
2016-08-07T08:13:32.052Z,8692
2016-08-07T08:14:47.007Z,7104
2016-08-07T08:15:32.120Z,7568
2016-08-07T08:16:32.152Z,56352
2016-08-07T08:17:32.194Z,57088
2016-08-07T08:18:32.221Z,54112
2016-08-07T08:19:32.273Z,53472
2016-08-07T08:20:32.290Z,38048
2016-08-07T08:22:47.294Z,41216
2016-08-07T08:23:47.327Z,26112
2016-08-07T08:24:32.436Z,26240
2016-08-07T08:25:32.466Z,15296
2016-08-07T08:26:32.509Z,24416
2016-08-07T08:27:32.534Z,23392
2016-08-07T08:28:47.498Z,17032
2016-08-07T08:29:32.617Z,9992
2016-08-07T08:30:32.662Z,8764
2016-08-07T08:31:32.680Z,8532
2016-08-07T08:32:32.709Z,21600
2016-08-07T08:33:32.746Z,12632
2016-08-07T08:34:32.785Z,11180
2016-08-07T08:35:32.808Z,10420
2016-08-07T08:36:32.843Z,15676
2016-08-07T08:37:32.878Z,21408
2016-08-07T08:38:32.914Z,20768
2016-08-07T08:39:33.646Z,20832
2016-08-07T08:40:32.984Z,21344
2016-08-07T08:41:33.016Z,21248
2016-08-07T08:42:33.056Z,21024
2016-08-07T08:43:48.017Z,20832
2016-08-07T08:44:33.139Z,9256
2016-08-07T08:45:33.845Z,22176
2016-08-07T08:46:48.113Z,22112
2016-08-07T08:47:33.226Z,13764
2016-08-07T08:48:33.267Z,22560
2016-08-07T08:49:48.227Z,22080
2016-08-07T08:50:33.332Z,21536
2016-08-07T08:51:33.367Z,21408
2016-08-07T08:52:33.402Z,21408
2016-08-07T08:53:33.434Z,21440
2016-08-07T08:54:33.631Z,21248
2016-08-07T08:55:33.506Z,20832
2016-08-07T08:56:33.531Z,20608
2016-08-07T08:57:33.569Z,20640
2016-08-07T08:58:33.619Z,20928
2016-08-07T08:59:33.689Z,20352
2016-08-07T09:00:33.676Z,19904
2016-08-07T09:01:33.713Z,19872
2016-08-07T09:02:33.744Z,14552
2016-08-07T09:03:33.784Z,9660
2016-08-07T09:04:33.854Z,9324
2016-08-07T09:05:33.863Z,9552
2016-08-07T09:06:33.875Z,10272
2016-08-07T09:07:33.922Z,10884
2016-08-07T09:08:33.951Z,10988
2016-08-07T09:09:33.991Z,10276
2016-08-07T09:10:34.020Z,8640
2016-08-07T09:11:34.062Z,20224
2016-08-07T09:12:34.077Z,9584
2016-08-07T09:13:49.097Z,20224
2016-08-07T09:14:34.152Z,19712
2016-08-07T09:15:49.119Z,16204
2016-08-07T09:17:34.949Z,20096
2016-08-07T09:18:34.295Z,20480
2016-08-07T09:20:34.382Z,20064
2016-08-07T09:21:34.391Z,20736
2016-08-07T09:22:34.423Z,15680
2016-08-07T09:23:34.460Z,21120
2016-08-07T09:24:34.495Z,21472
2016-08-07T09:25:49.459Z,20864
2016-08-07T09:26:34.569Z,10512
2016-08-07T09:27:34.595Z,10972
2016-08-07T09:28:35.329Z,20160
2016-08-07T09:29:49.590Z,21664
2016-08-07T09:31:49.664Z,10892
2016-08-07T09:32:34.772Z,10432
2016-08-07T09:33:34.794Z,10012
2016-08-07T09:34:34.845Z,9788
2016-08-07T09:35:34.868Z,19680
2016-08-07T09:36:34.902Z,20096
2016-08-07T09:37:35.639Z,19680
2016-08-07T09:39:35.009Z,8584
2016-08-07T09:40:35.033Z,8576
2016-08-07T09:42:35.101Z,8964
2016-08-07T09:43:35.148Z,17920
2016-08-07T09:44:35.170Z,17888
2016-08-07T09:45:35.210Z,18720
2016-08-07T09:46:35.238Z,18912
2016-08-07T09:47:50.198Z,10296
2016-08-07T09:48:35.312Z,7640
2016-08-07T09:49:35.340Z,7264
2016-08-07T09:50:35.376Z,7604
2016-08-07T09:51:35.401Z,7604
2016-08-07T09:52:35.434Z,7960
2016-08-07T09:54:35.500Z,9140
2016-08-07T09:55:35.533Z,9052
2016-08-07T09:56:35.574Z,8884
2016-08-07T09:57:35.617Z,8500
2016-08-07T09:58:50.562Z,8052
2016-08-07T10:00:50.629Z,7580
2016-08-07T10:01:35.731Z,7684
2016-08-07T10:02:35.765Z,8264
2016-08-07T10:03:50.733Z,8636
2016-08-07T10:04:35.837Z,8880
2016-08-07T10:05:35.863Z,9188
2016-08-07T10:06:35.945Z,12544
2016-08-07T10:08:35.965Z,17952
2016-08-07T10:09:35.997Z,18208
2016-08-07T10:10:36.030Z,10100
2016-08-07T10:11:36.053Z,9556
2016-08-07T10:12:36.097Z,9016
2016-08-07T10:13:36.119Z,8668
2016-08-07T10:14:36.200Z,8284
2016-08-07T10:15:36.178Z,16436
2016-08-07T10:16:51.145Z,8784
2016-08-07T10:18:51.204Z,12792
2016-08-07T10:19:36.320Z,11404
2016-08-07T10:20:51.268Z,9340
2016-08-07T10:21:36.380Z,9212
2016-08-07T10:22:36.417Z,12404
2016-08-07T10:24:36.476Z,8876
2016-08-07T10:25:36.504Z,8872
2016-08-07T10:26:36.548Z,9016
2016-08-07T10:27:36.571Z,10044
2016-08-07T10:28:36.608Z,16992
2016-08-07T10:29:36.653Z,17216
2016-08-07T10:30:51.597Z,8824
2016-08-07T10:31:37.405Z,8360
2016-08-07T10:32:36.730Z,7872
2016-08-07T10:33:36.756Z,7332
2016-08-07T10:34:51.716Z,14784
2016-08-07T10:35:36.829Z,14760
2016-08-07T10:36:36.849Z,14480
2016-08-07T10:37:36.904Z,14228
2016-08-07T10:38:36.929Z,14208
2016-08-07T10:39:36.948Z,6056
2016-08-07T10:40:51.923Z,5616
2016-08-07T10:41:37.047Z,5432
2016-08-07T10:42:37.057Z,5568
2016-08-07T10:43:37.073Z,5628
2016-08-07T10:46:37.181Z,12212
2016-08-07T10:47:37.212Z,9804
2016-08-07T10:49:37.972Z,10280
2016-08-07T10:50:52.228Z,15184
2016-08-07T10:51:52.256Z,11348
2016-08-07T10:52:52.295Z,11968
2016-08-07T10:54:37.423Z,14400
2016-08-07T10:55:37.463Z,12552
2016-08-07T10:57:37.511Z,13180
2016-08-07T10:58:37.556Z,12444
2016-08-07T10:59:37.581Z,12048
2016-08-07T11:00:37.613Z,11644
2016-08-07T11:01:37.645Z,12560
2016-08-07T11:02:37.689Z,11788
2016-08-07T11:03:37.710Z,11272
2016-08-07T11:04:52.670Z,11332
2016-08-07T11:05:37.765Z,11456
2016-08-07T11:07:07.713Z,11444
2016-08-07T11:08:53.622Z,11520
2016-08-07T11:09:37.946Z,11804
2016-08-07T11:10:37.932Z,11860
2016-08-07T11:11:37.959Z,11444
2016-08-07T11:12:37.998Z,11248
2016-08-07T11:14:38.054Z,11416
2016-08-07T11:15:38.091Z,11440
2016-08-07T11:16:38.121Z,11440
2016-08-07T11:17:38.153Z,11584
2016-08-07T11:18:38.192Z,14500
2016-08-07T11:19:53.140Z,11932
2016-08-07T11:21:38.285Z,11100
2016-08-07T11:22:53.232Z,10068
2016-08-07T11:24:53.293Z,9580
2016-08-07T11:25:38.405Z,10168
2016-08-07T11:26:38.442Z,10332
2016-08-07T11:27:38.471Z,10236
2016-08-07T11:28:38.503Z,12604
2016-08-07T11:29:38.535Z,10552
2016-08-07T11:30:38.557Z,11348
2016-08-07T11:31:38.597Z,12480
2016-08-07T11:32:53.551Z,10832
2016-08-07T11:33:53.585Z,12348
2016-08-07T11:34:38.679Z,10772
2016-08-07T11:35:38.717Z,10428
2016-08-07T11:36:38.786Z,10492
2016-08-07T11:37:38.777Z,12660
2016-08-07T11:38:53.732Z,12296
2016-08-07T11:39:38.845Z,10996
2016-08-07T11:40:38.879Z,13040
2016-08-07T11:41:38.907Z,11860
2016-08-07T11:42:38.959Z,11108
2016-08-07T11:43:38.976Z,11708
2016-08-07T11:44:39.007Z,10612
2016-08-07T11:45:39.034Z,11880
2016-08-07T11:46:39.067Z,9884
2016-08-07T11:47:39.120Z,11596
2016-08-07T11:48:39.131Z,11608
2016-08-07T11:49:39.158Z,11600
2016-08-07T11:50:39.180Z,9588
2016-08-07T11:51:39.212Z,9720
2016-08-07T11:52:39.256Z,11260
2016-08-07T11:54:39.319Z,9984
2016-08-07T11:55:39.343Z,9296
2016-08-07T11:56:39.384Z,8632
2016-08-07T11:57:39.414Z,8032
2016-08-07T11:58:39.448Z,7492
2016-08-07T11:59:39.517Z,7072
2016-08-07T12:01:39.537Z,6536
2016-08-07T12:02:39.570Z,6428
2016-08-07T12:03:39.601Z,6460
2016-08-07T12:04:39.637Z,6504
2016-08-07T12:05:39.662Z,6656
2016-08-07T12:06:54.619Z,6844
2016-08-07T12:07:39.731Z,6928
2016-08-07T12:08:39.768Z,7108
2016-08-07T12:09:39.787Z,7224
2016-08-07T12:10:39.817Z,7196
2016-08-07T12:11:39.861Z,7024
2016-08-07T12:12:39.992Z,6712
2016-08-07T12:13:39.911Z,6388
2016-08-07T12:14:39.933Z,6180
2016-08-07T12:15:39.981Z,5992
2016-08-07T12:16:40.000Z,5832
2016-08-07T12:17:40.046Z,5696
2016-08-07T12:18:40.068Z,5596
2016-08-07T12:19:40.096Z,5472
2016-08-07T12:21:40.171Z,5548
2016-08-07T12:22:40.886Z,5480
2016-08-07T12:23:40.219Z,5408
2016-08-07T12:24:40.947Z,5352
2016-08-07T12:25:55.211Z,5312
2016-08-07T12:26:40.314Z,5308
2016-08-07T12:28:40.382Z,5308
2016-08-07T12:29:55.344Z,5332
2016-08-07T12:31:40.473Z,5304
2016-08-07T12:32:40.501Z,5348
2016-08-07T12:33:40.528Z,5368
2016-08-07T12:34:40.561Z,5408
2016-08-07T12:36:40.624Z,5488
2016-08-07T12:38:40.693Z,5596
2016-08-07T12:39:55.644Z,5700
2016-08-07T12:40:40.751Z,5780
2016-08-07T12:41:55.701Z,5912
2016-08-07T12:42:40.811Z,6012
2016-08-07T12:43:40.847Z,6196
2016-08-07T12:44:40.865Z,6440
2016-08-07T12:45:40.896Z,6816
2016-08-07T12:46:40.931Z,6688
2016-08-07T12:47:40.967Z,6388
2016-08-07T12:48:40.996Z,7212
2016-08-07T12:49:41.023Z,6112
2016-08-07T12:50:41.062Z,7988
2016-08-07T12:51:41.092Z,6824
2016-08-07T12:52:41.111Z,7848
2016-08-07T12:53:41.150Z,7532
2016-08-07T12:54:41.217Z,8700
2016-08-07T12:55:56.129Z,8064
2016-08-07T12:56:41.237Z,8384
2016-08-07T12:57:56.192Z,8932
2016-08-07T12:58:56.218Z,9336
2016-08-07T12:59:41.590Z,9640
2016-08-07T13:00:41.362Z,10064
2016-08-07T13:01:41.395Z,10496
2016-08-07T13:02:41.431Z,9908
2016-08-07T13:03:41.449Z,11472
2016-08-07T13:04:41.495Z,11448
2016-08-07T13:05:41.559Z,10672
2016-08-07T13:06:41.551Z,10628
2016-08-07T13:07:41.579Z,10532
2016-08-07T13:08:41.608Z,12308
2016-08-07T13:10:41.667Z,10224
2016-08-07T13:11:41.690Z,9112
2016-08-07T13:12:41.727Z,10224
2016-08-07T13:13:56.736Z,10012
2016-08-07T13:14:41.791Z,10716
2016-08-07T13:15:42.518Z,10152
2016-08-07T13:16:41.851Z,9504
2016-08-07T13:17:41.884Z,9068
2016-08-07T13:18:56.849Z,9472
2016-08-07T13:19:41.947Z,8864
2016-08-07T13:20:42.036Z,8588
2016-08-07T13:21:42.012Z,7592
2016-08-07T13:22:42.044Z,7044
2016-08-07T13:23:42.080Z,6996
2016-08-07T13:24:42.801Z,7232
2016-08-07T13:25:57.066Z,6844
2016-08-07T13:26:57.100Z,6984
2016-08-07T13:27:57.122Z,6660
2016-08-07T13:28:57.160Z,6048
2016-08-07T13:29:42.257Z,6004
2016-08-07T13:30:42.310Z,5488
2016-08-07T13:31:42.321Z,6272
2016-08-07T13:32:42.363Z,6396
2016-08-07T13:33:42.405Z,6352
2016-08-07T13:34:42.424Z,6372
2016-08-07T13:35:42.450Z,6408
2016-08-07T13:36:57.409Z,6392
2016-08-07T13:37:42.510Z,6364
2016-08-07T13:38:42.541Z,6336
2016-08-07T13:39:42.573Z,6272
2016-08-07T13:40:42.619Z,6184
2016-08-07T13:41:42.634Z,6072
2016-08-07T13:42:42.662Z,5944
2016-08-07T13:43:42.707Z,5844
2016-08-07T13:44:42.726Z,5752
2016-08-07T13:45:57.681Z,5696
2016-08-07T13:46:42.800Z,5664
2016-08-07T13:47:42.821Z,5596
2016-08-07T13:48:42.846Z,5596
2016-08-07T13:49:42.877Z,5592
2016-08-07T13:50:42.901Z,5588
2016-08-07T13:51:42.938Z,5584
2016-08-07T13:52:42.975Z,5576
2016-08-07T13:54:43.034Z,5536
2016-08-07T13:55:43.061Z,5516
2016-08-07T13:56:43.086Z,5420
2016-08-07T13:57:43.133Z,5536
2016-08-07T13:58:43.155Z,5536
2016-08-07T13:59:43.180Z,5540
2016-08-07T14:00:58.142Z,5536
2016-08-07T14:01:43.241Z,5524
2016-08-07T14:02:43.272Z,5524
2016-08-07T14:03:43.300Z,5520
2016-08-07T14:05:44.854Z,5536
2016-08-07T14:06:43.389Z,5544
2016-08-07T14:07:43.432Z,5544
2016-08-07T14:08:43.445Z,5552
2016-08-07T14:09:43.481Z,5544
2016-08-07T14:10:43.520Z,5520
2016-08-07T14:11:43.548Z,5536
2016-08-07T14:12:43.579Z,5476
2016-08-07T14:13:43.606Z,5460
2016-08-07T14:14:44.327Z,5508
2016-08-07T14:15:43.667Z,4832
2016-08-07T14:16:58.672Z,5620
2016-08-07T14:17:43.731Z,5540
2016-08-07T14:18:43.764Z,5612
2016-08-07T14:19:43.796Z,5636
2016-08-07T14:20:43.822Z,5600
2016-08-07T14:21:43.845Z,5492
2016-08-07T14:22:43.874Z,5532
2016-08-07T14:23:43.904Z,5504
2016-08-07T14:24:58.919Z,5504
2016-08-07T14:26:44.003Z,5604
2016-08-07T14:27:44.037Z,5628
2016-08-07T14:28:44.061Z,5616
2016-08-07T14:29:44.096Z,5564
2016-08-07T14:30:59.044Z,5576
2016-08-07T14:31:44.253Z,5540
2016-08-07T14:32:59.109Z,5572
2016-08-07T14:33:44.222Z,5544
2016-08-07T14:35:44.274Z,5556
2016-08-07T14:36:44.306Z,5544
2016-08-07T14:37:44.331Z,5536
2016-08-07T14:38:44.365Z,5512
2016-08-07T14:39:44.636Z,5400
2016-08-07T14:40:44.415Z,5448
2016-08-07T14:41:44.449Z,5496
2016-08-07T14:42:44.485Z,5480
2016-08-07T14:43:44.518Z,5424
2016-08-07T14:44:44.547Z,5480
2016-08-07T14:45:45.283Z,5504
2016-08-07T14:46:44.604Z,5428
2016-08-07T14:47:59.559Z,5456
2016-08-07T14:49:44.722Z,5396
2016-08-07T14:50:59.644Z,5256
2016-08-07T14:51:59.675Z,5268
2016-08-07T14:52:44.787Z,5356
2016-08-07T14:53:44.818Z,5184
2016-08-07T14:54:45.673Z,5340
2016-08-07T14:55:44.880Z,5312
2016-08-07T14:56:44.911Z,5320
2016-08-07T14:57:44.943Z,5340
2016-08-07T14:58:44.976Z,5332
2016-08-07T15:00:45.030Z,5400
2016-08-07T15:01:59.980Z,5296